createdAt,value
2023-01-09T00:01:54.305Z,97.92
2023-01-09T00:04:22.392Z,97.78
2023-01-09T00:06:54.211Z,97.88
2023-01-09T00:09:22.527Z,97.74
2023-01-09T00:11:51.146Z,97.81
2023-01-09T00:14:20.042Z,98.02
2023-01-09T00:16:48.172Z,97.75
2023-01-09T00:19:17.606Z,97.78
2023-01-09T00:21:45.696Z,97.87
2023-01-09T00:24:13.753Z,97.99
2023-01-09T00:26:41.815Z,97.91
2023-01-09T00:29:11.610Z,98.39
2023-01-09T00:31:39.697Z,98.21
2023-01-09T00:34:10.429Z,97.98
2023-01-09T00:36:39.884Z,97.87
2023-01-09T00:39:08.031Z,97.60
2023-01-09T00:41:38.354Z,97.68
2023-01-09T00:44:09.310Z,97.74
2023-01-09T00:46:40.689Z,97.79
2023-01-09T00:49:09.196Z,98.14
2023-01-09T00:51:37.731Z,98.11
2023-01-09T00:54:07.299Z,98.29
2023-01-09T00:56:35.789Z,98.47
2023-01-09T00:59:04.153Z,98.35
2023-01-09T01:01:32.542Z,98.19
2023-01-09T01:04:20.654Z,98.20
2023-01-09T01:07:06.007Z,97.92
2023-01-09T01:09:35.460Z,97.78
2023-01-09T01:12:07.030Z,97.76
2023-01-09T01:14:35.514Z,97.84
2023-01-09T01:17:03.728Z,97.82
2023-01-09T01:19:31.964Z,97.76
2023-01-09T01:22:00.039Z,97.71
2023-01-09T01:24:28.354Z,97.78
2023-01-09T01:26:57.846Z,97.86
2023-01-09T01:29:25.926Z,97.78
2023-01-09T01:31:54.426Z,97.77
2023-01-09T01:34:22.481Z,97.76
2023-01-09T01:36:50.539Z,98.04
2023-01-09T01:39:18.740Z,98.42
2023-01-09T01:41:46.819Z,98.29
2023-01-09T01:44:48.107Z,98.47
2023-01-09T01:47:18.638Z,98.68
2023-01-09T01:49:47.048Z,99.54
2023-01-09T01:52:15.890Z,99.29
2023-01-09T01:54:44.536Z,99.79
2023-01-09T01:57:13.279Z,98.80
2023-01-09T01:59:44.574Z,98.82
2023-01-09T02:02:13.124Z,99.15
2023-01-09T02:04:42.857Z,98.94
2023-01-09T02:07:11.294Z,99.06
2023-01-09T02:09:41.438Z,98.53
2023-01-09T02:12:18.065Z,98.62
2023-01-09T02:14:47.226Z,98.26
2023-01-09T02:17:21.882Z,99.17
2023-01-09T02:20:27.007Z,100.00
2023-01-09T02:23:06.377Z,99.99
2023-01-09T02:25:48.603Z,99.49
2023-01-09T02:28:51.328Z,99.25
2023-01-09T02:31:23.282Z,99.88
2023-01-09T02:33:56.054Z,99.22
2023-01-09T02:36:30.081Z,99.21
2023-01-09T02:39:09.956Z,99.16
2023-01-09T02:41:44.347Z,98.43
2023-01-09T02:44:21.345Z,98.75
2023-01-09T02:47:01.043Z,98.78
2023-01-09T02:49:29.504Z,98.40
2023-01-09T02:52:05.380Z,98.82
2023-01-09T02:54:39.829Z,98.90
2023-01-09T02:57:25.995Z,98.68
2023-01-09T03:00:04.535Z,98.35
2023-01-09T03:02:44.374Z,98.47
2023-01-09T03:05:16.378Z,98.92
2023-01-09T03:07:48.377Z,98.57
2023-01-09T03:10:20.261Z,98.40
2023-01-09T03:12:49.886Z,98.35
2023-01-09T03:15:19.588Z,98.38
2023-01-09T03:17:51.688Z,97.97
2023-01-09T03:20:22.722Z,98.18
2023-01-09T03:22:56.143Z,98.16
2023-01-09T03:25:24.728Z,98.17
2023-01-09T03:28:01.123Z,98.34
2023-01-09T03:30:30.655Z,99.05
2023-01-09T03:33:00.714Z,98.28
2023-01-09T03:35:28.921Z,98.10
2023-01-09T03:37:57.161Z,98.22
2023-01-09T03:40:25.220Z,98.30
2023-01-09T03:42:53.306Z,98.39
2023-01-09T03:45:21.402Z,98.15
2023-01-09T03:47:50.689Z,98.45
2023-01-09T03:50:21.844Z,98.43
2023-01-09T03:52:49.904Z,98.40
2023-01-09T03:55:18.092Z,98.25
2023-01-09T03:57:46.233Z,98.54
2023-01-09T04:00:15.179Z,98.11
2023-01-09T04:02:43.614Z,98.06
2023-01-09T04:05:11.759Z,98.04
2023-01-09T04:07:41.299Z,98.10
2023-01-09T04:10:10.799Z,97.83
2023-01-09T04:12:38.985Z,98.42
2023-01-09T04:15:08.162Z,98.33
2023-01-09T04:17:36.204Z,97.92
2023-01-09T04:20:05.003Z,98.07
2023-01-09T04:22:33.195Z,97.92
2023-01-09T04:25:02.628Z,98.48
2023-01-09T04:27:31.301Z,98.40
2023-01-09T04:29:59.381Z,98.58
2023-01-09T04:32:27.644Z,98.18
2023-01-09T04:34:55.807Z,98.14
2023-01-09T04:37:24.488Z,98.66
2023-01-09T04:39:54.835Z,98.44
2023-01-09T04:42:24.620Z,98.65
2023-01-09T04:44:54.054Z,98.46
2023-01-09T04:47:23.721Z,98.58
2023-01-09T04:49:52.028Z,98.19
2023-01-09T04:52:20.146Z,97.94
2023-01-09T04:54:48.206Z,98.44
2023-01-09T04:57:16.289Z,98.68
2023-01-09T04:59:45.830Z,98.82
2023-01-09T05:02:14.155Z,98.54
2023-01-09T05:04:43.072Z,98.62
2023-01-09T05:07:11.162Z,98.63
2023-01-09T05:09:39.244Z,98.42
2023-01-09T05:12:07.949Z,98.79
2023-01-09T05:14:36.026Z,98.69
2023-01-09T05:17:05.473Z,98.65
2023-01-09T05:19:34.606Z,99.02
2023-01-09T05:22:02.915Z,99.08
2023-01-09T05:24:31.224Z,98.85
2023-01-09T05:26:59.285Z,98.76
2023-01-09T05:29:27.370Z,98.84
2023-01-09T05:31:55.509Z,98.90
2023-01-09T05:34:25.176Z,99.02
2023-01-09T05:36:53.311Z,98.53
2023-01-09T05:39:21.493Z,97.77
2023-01-09T05:41:49.559Z,97.98
2023-01-09T05:44:17.856Z,98.46
2023-01-09T05:46:45.901Z,98.62
2023-01-09T05:49:14.010Z,98.71
2023-01-09T05:51:43.509Z,98.81
2023-01-09T05:54:11.601Z,98.77
2023-01-09T05:56:39.672Z,98.49
2023-01-09T05:59:07.734Z,98.56
2023-01-09T06:01:35.894Z,98.80
2023-01-09T06:04:03.976Z,98.91
2023-01-09T06:06:32.446Z,98.84
2023-01-09T06:09:03.448Z,98.81
2023-01-09T06:11:31.526Z,98.87
2023-01-09T06:13:59.593Z,98.95
2023-01-09T06:16:27.641Z,98.97
2023-01-09T06:18:55.739Z,98.79
2023-01-09T06:21:23.898Z,98.92
2023-01-09T06:23:51.973Z,98.80
2023-01-09T06:26:21.396Z,98.86
2023-01-09T06:28:49.464Z,98.81
2023-01-09T06:31:17.533Z,98.69
2023-01-09T06:33:45.610Z,98.66
2023-01-09T06:36:13.678Z,98.64
2023-01-09T06:38:41.795Z,98.78
2023-01-09T06:41:09.974Z,98.81
2023-01-09T06:43:39.429Z,98.80
2023-01-09T06:46:07.647Z,98.75
2023-01-09T06:48:35.855Z,98.67
2023-01-09T06:51:04.137Z,98.67
2023-01-09T06:53:32.396Z,98.93
2023-01-09T06:56:02.243Z,98.86
2023-01-09T06:58:30.340Z,98.60
2023-01-09T07:01:01.017Z,98.55
2023-01-09T07:03:29.190Z,98.91
2023-01-09T07:05:57.451Z,98.93
2023-01-09T07:08:25.541Z,98.93
2023-01-09T07:10:53.591Z,99.07
2023-01-09T07:13:21.684Z,99.30
2023-01-09T07:15:50.377Z,99.00
2023-01-09T07:18:19.849Z,99.04
2023-01-09T07:20:48.466Z,99.12
2023-01-09T07:23:18.738Z,98.92
2023-01-09T07:25:47.580Z,98.89
2023-01-09T07:28:15.619Z,99.08
2023-01-09T07:30:43.791Z,99.02
2023-01-09T07:33:11.855Z,98.82
2023-01-09T07:35:41.264Z,98.99
2023-01-09T07:38:09.331Z,98.91
2023-01-09T07:40:37.382Z,98.89
2023-01-09T07:43:05.531Z,98.90
2023-01-09T07:45:33.608Z,98.90
2023-01-09T07:48:01.700Z,98.86
2023-01-09T07:50:29.977Z,98.88
2023-01-09T07:52:59.671Z,98.71
2023-01-09T07:55:27.815Z,99.04
2023-01-09T07:57:55.861Z,98.72
2023-01-09T08:00:23.969Z,99.08
2023-01-09T08:02:55.194Z,98.90
2023-01-09T08:05:23.475Z,98.91
2023-01-09T08:07:51.737Z,98.95
2023-01-09T08:10:21.272Z,98.91
2023-01-09T08:12:50.478Z,99.04
2023-01-09T08:15:19.074Z,98.90
2023-01-09T08:17:47.885Z,98.83
2023-01-09T08:20:18.184Z,98.79
2023-01-09T08:22:50.636Z,98.86
2023-01-09T08:25:19.308Z,98.70
2023-01-09T08:27:48.792Z,98.90
2023-01-09T08:30:18.092Z,98.92
2023-01-09T08:32:51.059Z,98.75
2023-01-09T08:35:19.334Z,98.81
2023-01-09T08:37:47.642Z,99.07
2023-01-09T08:40:16.946Z,98.70
2023-01-09T08:43:02.925Z,98.76
2023-01-09T08:45:50.562Z,98.90
2023-01-09T08:48:18.620Z,98.88
2023-01-09T08:50:46.692Z,99.00
2023-01-09T08:53:15.450Z,98.99
2023-01-09T08:55:43.614Z,98.93
2023-01-09T08:58:11.773Z,99.08
2023-01-09T09:00:41.297Z,98.94
2023-01-09T09:03:10.812Z,99.07
2023-01-09T09:05:39.037Z,99.12
2023-01-09T09:08:07.297Z,99.45
2023-01-09T09:10:35.522Z,99.44
2023-01-09T09:13:03.769Z,99.31
2023-01-09T09:15:31.863Z,99.31
2023-01-09T09:18:02.759Z,99.42
2023-01-09T09:20:32.821Z,99.23
2023-01-09T09:23:01.035Z,99.07
2023-01-09T09:25:29.678Z,99.02
2023-01-09T09:27:57.847Z,99.24
2023-01-09T09:30:25.937Z,98.72
2023-01-09T09:32:54.062Z,99.13
2023-01-09T09:35:23.925Z,99.20
2023-01-09T09:37:56.130Z,99.38
2023-01-09T09:40:36.305Z,99.20
2023-01-09T09:43:57.322Z,99.36
2023-01-09T09:46:32.373Z,99.16
2023-01-09T09:49:04.706Z,99.13
2023-01-09T09:51:47.641Z,98.92
2023-01-09T09:54:18.675Z,99.14
2023-01-09T09:56:51.310Z,99.13
2023-01-09T09:59:21.800Z,99.45
2023-01-09T10:01:54.727Z,99.25
2023-01-09T10:04:25.036Z,99.27
2023-01-09T10:06:59.299Z,99.14
2023-01-09T10:09:39.164Z,98.86
2023-01-09T10:12:16.650Z,98.67
2023-01-09T10:14:44.782Z,98.02
2023-01-09T10:17:30.197Z,98.07
2023-01-09T10:20:42.586Z,97.66
2023-01-09T10:23:29.331Z,97.58
2023-01-09T10:26:02.723Z,97.41
2023-01-09T10:28:57.322Z,96.95
2023-01-09T10:31:30.305Z,96.94
2023-01-09T10:34:06.782Z,96.25
2023-01-09T10:36:49.650Z,96.22
2023-01-09T10:39:22.177Z,95.23
2023-01-09T10:41:56.719Z,95.06
2023-01-09T10:44:29.368Z,95.27
2023-01-09T10:46:59.283Z,95.39
2023-01-09T10:49:27.887Z,95.55
2023-01-09T10:52:13.649Z,95.75
2023-01-09T10:54:50.955Z,96.08
2023-01-09T10:57:28.859Z,96.05
2023-01-09T10:59:57.240Z,95.98
2023-01-09T11:02:28.827Z,96.09
2023-01-09T11:04:56.913Z,95.98
2023-01-09T11:07:27.339Z,95.60
2023-01-09T11:10:02.264Z,95.40
2023-01-09T11:12:31.669Z,95.68
2023-01-09T11:15:28.775Z,96.22
2023-01-09T11:18:17.096Z,96.04
2023-01-09T11:20:45.222Z,95.77
2023-01-09T11:23:31.766Z,96.27
2023-01-09T11:26:02.638Z,96.21
2023-01-09T11:28:30.778Z,96.22
2023-01-09T11:31:01.003Z,95.66
2023-01-09T11:33:31.445Z,95.57
2023-01-09T11:36:06.362Z,95.66
2023-01-09T11:38:46.864Z,95.41
2023-01-09T11:41:20.271Z,95.21
2023-01-09T11:43:51.753Z,95.17
2023-01-09T11:46:34.829Z,94.93
2023-01-09T11:49:04.154Z,94.89
2023-01-09T11:51:34.518Z,94.96
2023-01-09T11:54:18.883Z,95.15
2023-01-09T11:56:49.061Z,95.33
2023-01-09T11:59:19.350Z,95.55
2023-01-09T12:02:22.785Z,95.18
2023-01-09T12:04:55.217Z,95.10
2023-01-09T12:07:52.833Z,95.26
2023-01-09T12:10:39.058Z,95.49
2023-01-09T12:13:17.877Z,95.59
2023-01-09T12:15:52.087Z,95.74
2023-01-09T12:18:34.474Z,95.72
2023-01-09T12:21:15.320Z,95.84
2023-01-09T12:24:16.314Z,96.05
2023-01-09T12:26:49.238Z,96.01
2023-01-09T12:29:30.899Z,96.27
2023-01-09T12:32:21.050Z,96.22
2023-01-09T12:35:03.123Z,96.22
2023-01-09T12:37:41.591Z,96.08
2023-01-09T12:40:22.772Z,96.18
2023-01-09T12:42:54.613Z,96.22
2023-01-09T12:45:37.673Z,96.31
2023-01-09T12:48:17.235Z,96.37
2023-01-09T12:51:02.254Z,96.38
2023-01-09T12:53:34.596Z,96.46
2023-01-09T12:56:07.355Z,96.48
2023-01-09T12:58:42.384Z,96.41
2023-01-09T13:01:16.163Z,96.29
2023-01-09T13:03:49.497Z,96.43
2023-01-09T13:06:19.776Z,96.17
2023-01-09T13:08:52.041Z,96.08
2023-01-09T13:11:23.477Z,96.24
2023-01-09T13:13:55.838Z,95.97
2023-01-09T13:16:28.416Z,96.23
2023-01-09T13:19:00.165Z,95.95
2023-01-09T13:21:28.548Z,95.84
2023-01-09T13:23:59.632Z,95.93
2023-01-09T13:26:31.668Z,96.24
2023-01-09T13:29:04.278Z,96.03
2023-01-09T13:31:47.438Z,96.06
2023-01-09T13:34:21.736Z,95.93
2023-01-09T13:36:52.234Z,95.79
2023-01-09T13:39:25.420Z,96.00
2023-01-09T13:42:15.550Z,95.67
2023-01-09T13:44:44.200Z,95.97
2023-01-09T13:47:22.156Z,95.73
2023-01-09T13:50:26.594Z,95.54
2023-01-09T13:52:54.783Z,95.62
2023-01-09T13:55:36.065Z,95.83
2023-01-09T13:58:25.016Z,95.61
2023-01-09T14:00:55.869Z,95.62
2023-01-09T14:03:28.341Z,95.46
2023-01-09T14:06:12.540Z,95.57
2023-01-09T14:08:42.803Z,95.54
2023-01-09T14:11:18.487Z,95.42
2023-01-09T14:13:47.310Z,95.70
2023-01-09T14:16:20.519Z,95.27
2023-01-09T14:18:52.323Z,95.20
2023-01-09T14:21:20.625Z,95.01
2023-01-09T14:23:54.976Z,95.26
2023-01-09T14:26:26.141Z,95.35
2023-01-09T14:29:14.312Z,95.21
2023-01-09T14:31:43.873Z,95.03
2023-01-09T14:34:36.499Z,95.09
2023-01-09T14:37:05.327Z,94.92
2023-01-09T14:39:34.001Z,94.97
2023-01-09T14:42:07.967Z,94.90
2023-01-09T14:44:46.490Z,94.83
2023-01-09T14:47:20.813Z,94.96
2023-01-09T14:49:55.187Z,94.87
2023-01-09T14:52:25.823Z,94.97
2023-01-09T14:54:56.367Z,94.92
2023-01-09T14:57:25.786Z,95.05
2023-01-09T15:00:00.761Z,95.04
2023-01-09T15:02:32.667Z,94.92
2023-01-09T15:05:05.908Z,95.08
2023-01-09T15:07:40.488Z,95.05
2023-01-09T15:10:16.256Z,95.00
2023-01-09T15:12:46.358Z,95.11
2023-01-09T15:15:15.807Z,95.20
2023-01-09T15:17:47.174Z,95.14
2023-01-09T15:20:19.602Z,95.01
2023-01-09T15:22:52.815Z,95.05
2023-01-09T15:25:33.909Z,95.13
2023-01-09T15:28:13.871Z,95.28
2023-01-09T15:30:43.382Z,95.08
2023-01-09T15:33:16.363Z,95.20
2023-01-09T15:35:45.897Z,95.22
2023-01-09T15:38:15.647Z,95.29
2023-01-09T15:40:43.796Z,95.24
2023-01-09T15:43:14.659Z,95.16
2023-01-09T15:45:44.215Z,95.10
2023-01-09T15:48:23.097Z,95.05
2023-01-09T15:50:54.197Z,94.92
2023-01-09T15:53:24.199Z,94.79
2023-01-09T15:56:17.307Z,94.78
2023-01-09T15:58:47.213Z,94.77
2023-01-09T16:01:26.915Z,94.83
2023-01-09T16:03:58.634Z,94.66
2023-01-09T16:06:29.596Z,94.79
2023-01-09T16:08:59.514Z,94.81
2023-01-09T16:11:30.119Z,95.10
2023-01-09T16:14:00.199Z,95.19
2023-01-09T16:16:31.077Z,95.23
2023-01-09T16:19:00.901Z,95.36
2023-01-09T16:21:34.810Z,95.41
2023-01-09T16:24:06.232Z,95.76
2023-01-09T16:26:34.821Z,95.77
2023-01-09T16:29:27.921Z,95.97
2023-01-09T16:32:02.776Z,95.95
2023-01-09T16:34:32.734Z,95.94
2023-01-09T16:37:02.813Z,96.15
2023-01-09T16:39:31.050Z,96.22
2023-01-09T16:42:16.592Z,96.34
2023-01-09T16:44:44.667Z,96.38
2023-01-09T16:47:13.468Z,96.43
2023-01-09T16:49:42.894Z,96.36
2023-01-09T16:52:17.349Z,96.40
2023-01-09T16:54:46.898Z,96.34
2023-01-09T16:57:18.429Z,96.57
2023-01-09T16:59:46.814Z,96.46
2023-01-09T17:02:18.508Z,96.35
2023-01-09T17:04:48.103Z,96.47
2023-01-09T17:07:17.488Z,96.27
2023-01-09T17:09:45.758Z,96.25
2023-01-09T17:12:17.651Z,96.14
2023-01-09T17:14:45.702Z,96.15
2023-01-09T17:17:14.168Z,96.29
2023-01-09T17:19:42.661Z,96.16
2023-01-09T17:22:12.134Z,96.25
2023-01-09T17:24:57.778Z,96.25
2023-01-09T17:27:47.075Z,96.38
2023-01-09T17:30:19.579Z,96.44
2023-01-09T17:32:48.297Z,96.53
2023-01-09T17:35:17.180Z,96.66
2023-01-09T17:37:46.630Z,96.50
2023-01-09T17:40:19.439Z,96.58
2023-01-09T17:42:47.556Z,96.63
2023-01-09T17:45:15.913Z,96.60
2023-01-09T17:47:43.987Z,96.61
2023-01-09T17:50:17.692Z,96.43
2023-01-09T17:52:47.132Z,96.86
2023-01-09T17:55:15.257Z,96.61
2023-01-09T17:57:43.878Z,96.63
2023-01-09T18:00:18.608Z,96.81
2023-01-09T18:02:46.740Z,96.70
2023-01-09T18:05:15.002Z,96.65
2023-01-09T18:07:43.111Z,96.83
2023-01-09T18:10:14.946Z,96.80
2023-01-09T18:12:43.246Z,96.84
2023-01-09T18:15:11.826Z,96.99
2023-01-09T18:17:40.325Z,96.89
2023-01-09T18:20:09.575Z,96.80
2023-01-09T18:22:38.059Z,96.89
2023-01-09T18:25:08.014Z,96.69
2023-01-09T18:27:38.548Z,97.00
2023-01-09T18:30:08.386Z,96.93
2023-01-09T18:32:36.483Z,96.95
2023-01-09T18:35:04.913Z,96.92
2023-01-09T18:37:33.036Z,96.91
2023-01-09T18:40:01.138Z,96.99
2023-01-09T18:42:29.238Z,97.03
2023-01-09T18:44:58.670Z,97.15
2023-01-09T18:47:26.786Z,97.00
2023-01-09T18:49:54.891Z,97.23
2023-01-09T18:52:23.456Z,97.16
2023-01-09T18:54:51.582Z,97.27
2023-01-09T18:57:19.697Z,97.15
2023-01-09T18:59:47.828Z,97.32
2023-01-09T19:02:21.040Z,97.49
2023-01-09T19:04:49.476Z,97.48
2023-01-09T19:07:17.816Z,97.43
2023-01-09T19:09:46.332Z,97.39
2023-01-09T19:12:14.404Z,97.39
2023-01-09T19:14:42.456Z,97.42
2023-01-09T19:17:10.551Z,97.59
2023-01-09T19:19:40.016Z,97.55
2023-01-09T19:22:08.112Z,97.43
2023-01-09T19:24:37.196Z,97.45
2023-01-09T19:27:05.334Z,97.37
2023-01-09T19:29:35.750Z,97.28
2023-01-09T19:32:08.360Z,97.37
2023-01-09T19:34:36.515Z,97.34
2023-01-09T19:37:08.912Z,97.48
2023-01-09T19:39:37.652Z,97.19
2023-01-09T19:42:05.827Z,97.27
2023-01-09T19:44:33.882Z,97.21
2023-01-09T19:47:01.969Z,97.27
2023-01-09T19:49:30.190Z,97.15
2023-01-09T19:52:00.612Z,97.22
2023-01-09T19:54:30.407Z,97.40
2023-01-09T19:56:58.518Z,97.56
2023-01-09T19:59:26.678Z,97.59
2023-01-09T20:01:55.278Z,97.52
2023-01-09T20:04:23.449Z,97.48
2023-01-09T20:06:52.640Z,97.71
2023-01-09T20:09:22.527Z,97.68
2023-01-09T20:11:52.234Z,97.84
2023-01-09T20:14:20.920Z,97.87
2023-01-09T20:16:50.028Z,97.88
2023-01-09T20:19:18.164Z,97.76
2023-01-09T20:21:46.269Z,97.76
2023-01-09T20:24:16.669Z,97.76
2023-01-09T20:26:46.154Z,97.65
2023-01-09T20:29:16.785Z,97.72
2023-01-09T20:31:45.340Z,97.61
2023-01-09T20:34:14.285Z,97.56
2023-01-09T20:36:42.491Z,97.77
2023-01-09T20:39:12.334Z,97.56
2023-01-09T20:41:40.563Z,97.56
2023-01-09T20:44:10.896Z,97.71
2023-01-09T20:46:41.841Z,97.77
2023-01-09T20:49:12.600Z,97.81
2023-01-09T20:51:43.471Z,97.76
2023-01-09T20:54:11.563Z,97.62
2023-01-09T20:56:39.723Z,97.79
2023-01-09T20:59:12.446Z,97.80
2023-01-09T21:01:41.939Z,97.91
2023-01-09T21:04:10.233Z,98.11
2023-01-09T21:06:38.908Z,98.03
2023-01-09T21:09:07.210Z,98.12
2023-01-09T21:11:35.318Z,98.01
2023-01-09T21:14:03.450Z,97.92
2023-01-09T21:16:31.674Z,98.03
2023-01-09T21:19:01.201Z,97.97
2023-01-09T21:21:29.424Z,98.12
2023-01-09T21:23:59.179Z,97.99
2023-01-09T21:26:30.432Z,97.84
2023-01-09T21:29:00.608Z,97.98
2023-01-09T21:31:34.285Z,98.11
2023-01-09T21:34:05.618Z,98.06
2023-01-09T21:36:35.323Z,98.05
2023-01-09T21:39:07.452Z,98.06
2023-01-09T21:41:53.843Z,98.22
2023-01-09T21:44:39.386Z,98.10
2023-01-09T21:47:07.470Z,98.29
2023-01-09T21:49:40.741Z,98.05
2023-01-09T21:52:09.309Z,98.08
2023-01-09T21:54:37.378Z,98.03
2023-01-09T21:57:06.025Z,98.19
2023-01-09T21:59:34.102Z,98.16
2023-01-09T22:02:02.233Z,98.02
2023-01-09T22:04:30.649Z,97.89
2023-01-09T22:07:00.311Z,97.99
2023-01-09T22:09:28.574Z,98.02
2023-01-09T22:11:57.510Z,97.94
2023-01-09T22:14:25.609Z,98.00
2023-01-09T22:16:53.695Z,97.94
2023-01-09T22:19:21.992Z,98.10
2023-01-09T22:21:50.557Z,97.88
2023-01-09T22:24:21.679Z,98.00
2023-01-09T22:26:50.038Z,97.92
2023-01-09T22:29:18.113Z,97.90
2023-01-09T22:31:46.250Z,97.93
2023-01-09T22:34:15.939Z,97.76
2023-01-09T22:36:44.759Z,97.90
2023-01-09T22:39:14.221Z,97.87
2023-01-09T22:41:50.955Z,97.94
2023-01-09T22:44:19.304Z,97.99
2023-01-09T22:46:47.390Z,97.93
2023-01-09T22:49:15.442Z,97.91
2023-01-09T22:51:43.689Z,98.12
2023-01-09T22:54:11.769Z,98.18
2023-01-09T22:56:39.865Z,98.18
2023-01-09T22:59:09.364Z,98.30
2023-01-09T23:01:37.475Z,98.25
2023-01-09T23:04:05.609Z,98.33
2023-01-09T23:06:33.681Z,98.37
2023-01-09T23:09:01.741Z,98.36
2023-01-09T23:11:49.571Z,98.52
2023-01-09T23:14:19.110Z,98.47
2023-01-09T23:16:47.247Z,98.32
2023-01-09T23:19:15.665Z,98.33
2023-01-09T23:21:44.687Z,98.44
2023-01-09T23:24:13.540Z,98.52
2023-01-09T23:26:42.623Z,98.42
2023-01-09T23:29:11.570Z,98.43
2023-01-09T23:31:41.165Z,98.24
2023-01-09T23:34:09.371Z,98.07
2023-01-09T23:36:37.517Z,98.23
2023-01-09T23:39:08.952Z,98.26
2023-01-09T23:41:55.052Z,98.03
2023-01-09T23:44:23.217Z,98.27
2023-01-09T23:46:52.734Z,98.30
2023-01-09T23:49:20.944Z,98.32
2023-01-09T23:51:49.304Z,98.27
2023-01-09T23:54:17.557Z,98.41
2023-01-09T23:56:45.643Z,98.44
2023-01-09T23:59:14.143Z,98.46
